sensor_id;sensor_type;location;lat;lon;timestamp;P1;durP1;ratioP1;P2;durP2;ratioP2
40072;SDS011;25774;52.256;9.356;2023-07-20T00:01:02;2.40;;;0.80;;
40072;SDS011;25774;52.256;9.356;2023-07-20T00:03:27;2.40;;;0.70;;
40072;SDS011;25774;52.256;9.356;2023-07-20T00:05:53;5.33;;;1.37;;
40072;SDS011;25774;52.256;9.356;2023-07-20T00:08:18;1.20;;;0.60;;
40072;SDS011;25774;52.256;9.356;2023-07-20T00:10:44;3.03;;;1.00;;
40072;SDS011;25774;52.256;9.356;2023-07-20T00:13:10;3.55;;;0.80;;
40072;SDS011;25774;52.256;9.356;2023-07-20T00:15:35;2.35;;;0.98;;
40072;SDS011;25774;52.256;9.356;2023-07-20T00:18:01;2.67;;;1.13;;
40072;SDS011;25774;52.256;9.356;2023-07-20T00:20:26;6.27;;;1.20;;
40072;SDS011;25774;52.256;9.356;2023-07-20T00:22:51;3.83;;;0.97;;
40072;SDS011;25774;52.256;9.356;2023-07-20T00:25:17;2.10;;;0.90;;
40072;SDS011;25774;52.256;9.356;2023-07-20T00:27:42;2.10;;;0.95;;
40072;SDS011;25774;52.256;9.356;2023-07-20T00:30:07;7.70;;;1.23;;
40072;SDS011;25774;52.256;9.356;2023-07-20T00:32:34;4.13;;;1.10;;
40072;SDS011;25774;52.256;9.356;2023-07-20T00:34:59;7.22;;;1.08;;
40072;SDS011;25774;52.256;9.356;2023-07-20T00:37:24;4.27;;;0.77;;
40072;SDS011;25774;52.256;9.356;2023-07-20T00:39:50;2.30;;;0.97;;
40072;SDS011;25774;52.256;9.356;2023-07-20T00:42:15;2.33;;;1.20;;
40072;SDS011;25774;52.256;9.356;2023-07-20T00:44:41;7.67;;;1.27;;
40072;SDS011;25774;52.256;9.356;2023-07-20T00:47:06;5.90;;;0.90;;
40072;SDS011;25774;52.256;9.356;2023-07-20T00:49:31;6.17;;;0.90;;
40072;SDS011;25774;52.256;9.356;2023-07-20T00:51:57;9.38;;;0.93;;
40072;SDS011;25774;52.256;9.356;2023-07-20T00:54:22;6.53;;;1.20;;
40072;SDS011;25774;52.256;9.356;2023-07-20T00:56:47;2.77;;;1.07;;
40072;SDS011;25774;52.256;9.356;2023-07-20T00:59:13;3.83;;;1.30;;
40072;SDS011;25774;52.256;9.356;2023-07-20T01:01:39;2.70;;;1.00;;
40072;SDS011;25774;52.256;9.356;2023-07-20T01:04:04;3.40;;;1.20;;
40072;SDS011;25774;52.256;9.356;2023-07-20T01:06:36;7.37;;;1.00;;
40072;SDS011;25774;52.256;9.356;2023-07-20T01:09:19;2.63;;;0.93;;
40072;SDS011;25774;52.256;9.356;2023-07-20T01:14:10;3.97;;;0.97;;
40072;SDS011;25774;52.256;9.356;2023-07-20T01:16:37;1.52;;;0.80;;
40072;SDS011;25774;52.256;9.356;2023-07-20T01:19:02;3.03;;;0.90;;
40072;SDS011;25774;52.256;9.356;2023-07-20T01:21:31;3.33;;;1.03;;
40072;SDS011;25774;52.256;9.356;2023-07-20T01:24:04;4.57;;;1.30;;
40072;SDS011;25774;52.256;9.356;2023-07-20T01:31:24;7.57;;;1.00;;
40072;SDS011;25774;52.256;9.356;2023-07-20T01:33:50;3.00;;;1.42;;
40072;SDS011;25774;52.256;9.356;2023-07-20T01:36:17;1.35;;;0.85;;
40072;SDS011;25774;52.256;9.356;2023-07-20T01:38:43;1.60;;;0.93;;
40072;SDS011;25774;52.256;9.356;2023-07-20T01:41:08;2.53;;;0.93;;
40072;SDS011;25774;52.256;9.356;2023-07-20T01:43:33;6.43;;;1.00;;
40072;SDS011;25774;52.256;9.356;2023-07-20T01:45:59;3.87;;;1.07;;
40072;SDS011;25774;52.256;9.356;2023-07-20T01:48:24;4.30;;;0.80;;
40072;SDS011;25774;52.256;9.356;2023-07-20T01:50:49;5.63;;;0.80;;
40072;SDS011;25774;52.256;9.356;2023-07-20T01:53:14;6.50;;;1.50;;
40072;SDS011;25774;52.256;9.356;2023-07-20T01:55:40;10.13;;;1.40;;
40072;SDS011;25774;52.256;9.356;2023-07-20T01:58:05;5.93;;;1.07;;
40072;SDS011;25774;52.256;9.356;2023-07-20T02:00:31;6.15;;;1.05;;
40072;SDS011;25774;52.256;9.356;2023-07-20T02:02:56;5.03;;;1.10;;
40072;SDS011;25774;52.256;9.356;2023-07-20T02:05:22;4.17;;;1.20;;
40072;SDS011;25774;52.256;9.356;2023-07-20T02:07:47;1.90;;;0.77;;
40072;SDS011;25774;52.256;9.356;2023-07-20T02:10:13;6.07;;;1.70;;
40072;SDS011;25774;52.256;9.356;2023-07-20T02:12:38;3.97;;;1.20;;
40072;SDS011;25774;52.256;9.356;2023-07-20T02:15:04;4.60;;;0.90;;
40072;SDS011;25774;52.256;9.356;2023-07-20T02:17:30;3.72;;;1.10;;
40072;SDS011;25774;52.256;9.356;2023-07-20T02:19:58;5.63;;;1.03;;
40072;SDS011;25774;52.256;9.356;2023-07-20T02:22:23;8.45;;;1.10;;
40072;SDS011;25774;52.256;9.356;2023-07-20T02:24:49;5.57;;;1.43;;
40072;SDS011;25774;52.256;9.356;2023-07-20T02:27:15;8.32;;;1.45;;
40072;SDS011;25774;52.256;9.356;2023-07-20T02:29:40;8.63;;;1.70;;
40072;SDS011;25774;52.256;9.356;2023-07-20T02:32:06;6.53;;;1.10;;
40072;SDS011;25774;52.256;9.356;2023-07-20T02:34:31;5.93;;;0.87;;
40072;SDS011;25774;52.256;9.356;2023-07-20T02:36:56;11.20;;;1.13;;
40072;SDS011;25774;52.256;9.356;2023-07-20T02:39:22;11.57;;;1.05;;
40072;SDS011;25774;52.256;9.356;2023-07-20T02:41:48;5.00;;;1.00;;
40072;SDS011;25774;52.256;9.356;2023-07-20T02:44:15;7.07;;;1.25;;
40072;SDS011;25774;52.256;9.356;2023-07-20T02:46:41;8.32;;;1.10;;
40072;SDS011;25774;52.256;9.356;2023-07-20T02:49:06;10.10;;;1.60;;
40072;SDS011;25774;52.256;9.356;2023-07-20T02:51:31;9.93;;;1.50;;
40072;SDS011;25774;52.256;9.356;2023-07-20T02:53:56;3.23;;;0.90;;
40072;SDS011;25774;52.256;9.356;2023-07-20T02:56:22;7.30;;;0.93;;
40072;SDS011;25774;52.256;9.356;2023-07-20T02:58:48;8.95;;;1.13;;
40072;SDS011;25774;52.256;9.356;2023-07-20T03:01:13;10.27;;;1.20;;
40072;SDS011;25774;52.256;9.356;2023-07-20T03:03:43;7.10;;;1.15;;
40072;SDS011;25774;52.256;9.356;2023-07-20T03:06:13;11.18;;;1.00;;
40072;SDS011;25774;52.256;9.356;2023-07-20T03:08:39;5.50;;;1.30;;
40072;SDS011;25774;52.256;9.356;2023-07-20T03:11:07;2.47;;;0.88;;
40072;SDS011;25774;52.256;9.356;2023-07-20T03:13:32;8.48;;;1.50;;
40072;SDS011;25774;52.256;9.356;2023-07-20T03:15:58;10.30;;;1.00;;
40072;SDS011;25774;52.256;9.356;2023-07-20T03:18:23;4.70;;;1.00;;
40072;SDS011;25774;52.256;9.356;2023-07-20T03:20:48;12.50;;;1.37;;
40072;SDS011;25774;52.256;9.356;2023-07-20T03:23:13;3.80;;;0.87;;
40072;SDS011;25774;52.256;9.356;2023-07-20T03:25:40;4.78;;;0.80;;
40072;SDS011;25774;52.256;9.356;2023-07-20T03:28:05;9.17;;;1.90;;
40072;SDS011;25774;52.256;9.356;2023-07-20T03:30:31;5.80;;;1.30;;
40072;SDS011;25774;52.256;9.356;2023-07-20T03:32:56;13.30;;;1.37;;
40072;SDS011;25774;52.256;9.356;2023-07-20T03:35:21;4.73;;;0.87;;
40072;SDS011;25774;52.256;9.356;2023-07-20T03:37:47;9.35;;;1.40;;
40072;SDS011;25774;52.256;9.356;2023-07-20T03:40:12;12.20;;;1.10;;
40072;SDS011;25774;52.256;9.356;2023-07-20T03:42:37;17.27;;;3.37;;
40072;SDS011;25774;52.256;9.356;2023-07-20T03:45:04;13.57;;;1.55;;
40072;SDS011;25774;52.256;9.356;2023-07-20T03:47:29;7.30;;;1.00;;
40072;SDS011;25774;52.256;9.356;2023-07-20T03:49:55;18.17;;;1.50;;
40072;SDS011;25774;52.256;9.356;2023-07-20T03:54:47;27.02;;;1.75;;
40072;SDS011;25774;52.256;9.356;2023-07-20T03:57:12;10.83;;;1.37;;
40072;SDS011;25774;52.256;9.356;2023-07-20T03:59:38;14.53;;;2.00;;
40072;SDS011;25774;52.256;9.356;2023-07-20T04:02:09;8.43;;;1.05;;
40072;SDS011;25774;52.256;9.356;2023-07-20T04:04:34;12.35;;;1.23;;
40072;SDS011;25774;52.256;9.356;2023-07-20T04:07:00;18.57;;;1.80;;
40072;SDS011;25774;52.256;9.356;2023-07-20T04:09:25;11.17;;;1.27;;
40072;SDS011;25774;52.256;9.356;2023-07-20T04:11:50;10.70;;;1.20;;
40072;SDS011;25774;52.256;9.356;2023-07-20T04:14:15;4.73;;;1.63;;
40072;SDS011;25774;52.256;9.356;2023-07-20T04:16:41;8.80;;;1.57;;
40072;SDS011;25774;52.256;9.356;2023-07-20T04:19:06;17.03;;;2.03;;
40072;SDS011;25774;52.256;9.356;2023-07-20T04:21:32;14.67;;;1.67;;
40072;SDS011;25774;52.256;9.356;2023-07-20T04:23:57;17.25;;;1.92;;
40072;SDS011;25774;52.256;9.356;2023-07-20T04:26:22;17.23;;;2.60;;
40072;SDS011;25774;52.256;9.356;2023-07-20T04:28:48;3.53;;;1.73;;
40072;SDS011;25774;52.256;9.356;2023-07-20T04:31:15;4.88;;;2.08;;
40072;SDS011;25774;52.256;9.356;2023-07-20T04:33:41;4.93;;;2.50;;
40072;SDS011;25774;52.256;9.356;2023-07-20T04:36:06;4.10;;;2.30;;
40072;SDS011;25774;52.256;9.356;2023-07-20T04:38:32;4.65;;;2.30;;
40072;SDS011;25774;52.256;9.356;2023-07-20T04:40:57;6.23;;;2.63;;
40072;SDS011;25774;52.256;9.356;2023-07-20T04:43:22;6.13;;;3.03;;
40072;SDS011;25774;52.256;9.356;2023-07-20T04:45:47;5.87;;;3.90;;
40072;SDS011;25774;52.256;9.356;2023-07-20T04:48:15;5.13;;;3.33;;
40072;SDS011;25774;52.256;9.356;2023-07-20T04:50:41;6.00;;;3.50;;
40072;SDS011;25774;52.256;9.356;2023-07-20T04:53:06;5.55;;;4.15;;
40072;SDS011;25774;52.256;9.356;2023-07-20T04:55:32;5.57;;;3.40;;
40072;SDS011;25774;52.256;9.356;2023-07-20T04:58:01;6.15;;;4.00;;
40072;SDS011;25774;52.256;9.356;2023-07-20T05:00:27;6.43;;;3.75;;
40072;SDS011;25774;52.256;9.356;2023-07-20T05:02:52;6.73;;;3.17;;
40072;SDS011;25774;52.256;9.356;2023-07-20T05:05:17;6.77;;;3.60;;
40072;SDS011;25774;52.256;9.356;2023-07-20T05:07:43;6.37;;;3.40;;
40072;SDS011;25774;52.256;9.356;2023-07-20T05:10:08;7.57;;;3.27;;
40072;SDS011;25774;52.256;9.356;2023-07-20T05:12:34;4.15;;;3.03;;
40072;SDS011;25774;52.256;9.356;2023-07-20T05:14:59;4.93;;;2.97;;
40072;SDS011;25774;52.256;9.356;2023-07-20T05:17:24;4.80;;;2.97;;
40072;SDS011;25774;52.256;9.356;2023-07-20T05:19:50;3.83;;;2.43;;
40072;SDS011;25774;52.256;9.356;2023-07-20T05:22:15;6.07;;;3.07;;
40072;SDS011;25774;52.256;9.356;2023-07-20T05:24:41;4.15;;;2.65;;
40072;SDS011;25774;52.256;9.356;2023-07-20T05:27:06;3.97;;;2.47;;
40072;SDS011;25774;52.256;9.356;2023-07-20T05:29:31;6.03;;;3.00;;
40072;SDS011;25774;52.256;9.356;2023-07-20T05:31:58;5.15;;;3.20;;
40072;SDS011;25774;52.256;9.356;2023-07-20T05:34:23;6.10;;;3.23;;
40072;SDS011;25774;52.256;9.356;2023-07-20T05:36:48;4.73;;;2.93;;
40072;SDS011;25774;52.256;9.356;2023-07-20T05:39:16;6.35;;;3.13;;
40072;SDS011;25774;52.256;9.356;2023-07-20T05:41:41;4.22;;;3.00;;
40072;SDS011;25774;52.256;9.356;2023-07-20T05:44:07;4.23;;;2.90;;
40072;SDS011;25774;52.256;9.356;2023-07-20T05:46:32;7.80;;;3.40;;
40072;SDS011;25774;52.256;9.356;2023-07-20T05:48:57;4.90;;;3.30;;
40072;SDS011;25774;52.256;9.356;2023-07-20T05:51:22;5.07;;;3.40;;
40072;SDS011;25774;52.256;9.356;2023-07-20T05:53:47;5.47;;;3.23;;
40072;SDS011;25774;52.256;9.356;2023-07-20T05:56:13;6.93;;;3.73;;
40072;SDS011;25774;52.256;9.356;2023-07-20T05:58:39;5.45;;;3.88;;
40072;SDS011;25774;52.256;9.356;2023-07-20T06:01:04;6.93;;;4.47;;
40072;SDS011;25774;52.256;9.356;2023-07-20T06:03:32;6.20;;;3.85;;
40072;SDS011;25774;52.256;9.356;2023-07-20T06:06:00;4.72;;;3.55;;
40072;SDS011;25774;52.256;9.356;2023-07-20T06:08:26;12.70;;;4.97;;
40072;SDS011;25774;52.256;9.356;2023-07-20T06:10:51;7.05;;;4.30;;
40072;SDS011;25774;52.256;9.356;2023-07-20T06:13:17;7.40;;;4.53;;
40072;SDS011;25774;52.256;9.356;2023-07-20T06:15:42;6.27;;;4.00;;
40072;SDS011;25774;52.256;9.356;2023-07-20T06:18:08;5.95;;;4.35;;
40072;SDS011;25774;52.256;9.356;2023-07-20T06:20:33;6.60;;;5.27;;
40072;SDS011;25774;52.256;9.356;2023-07-20T06:22:59;6.47;;;4.80;;
40072;SDS011;25774;52.256;9.356;2023-07-20T06:25:24;8.90;;;5.37;;
40072;SDS011;25774;52.256;9.356;2023-07-20T06:27:50;7.03;;;5.60;;
40072;SDS011;25774;52.256;9.356;2023-07-20T06:30:16;6.95;;;5.75;;
40072;SDS011;25774;52.256;9.356;2023-07-20T06:32:41;5.67;;;4.67;;
40072;SDS011;25774;52.256;9.356;2023-07-20T06:35:08;5.70;;;4.70;;
40072;SDS011;25774;52.256;9.356;2023-07-20T06:37:34;6.40;;;4.75;;
40072;SDS011;25774;52.256;9.356;2023-07-20T06:40:00;6.13;;;4.40;;
40072;SDS011;25774;52.256;9.356;2023-07-20T06:42:25;5.43;;;4.07;;
40072;SDS011;25774;52.256;9.356;2023-07-20T06:44:50;6.30;;;3.93;;
40072;SDS011;25774;52.256;9.356;2023-07-20T06:47:16;6.00;;;3.93;;
40072;SDS011;25774;52.256;9.356;2023-07-20T06:49:41;5.10;;;2.80;;
40072;SDS011;25774;52.256;9.356;2023-07-20T06:52:06;4.77;;;3.10;;
40072;SDS011;25774;52.256;9.356;2023-07-20T06:54:33;4.90;;;3.10;;
40072;SDS011;25774;52.256;9.356;2023-07-20T06:59:23;4.67;;;2.70;;
40072;SDS011;25774;52.256;9.356;2023-07-20T07:01:49;4.60;;;2.55;;
40072;SDS011;25774;52.256;9.356;2023-07-20T07:04:14;4.53;;;2.67;;
40072;SDS011;25774;52.256;9.356;2023-07-20T07:06:40;3.03;;;1.93;;
40072;SDS011;25774;52.256;9.356;2023-07-20T07:09:05;3.80;;;2.23;;
40072;SDS011;25774;52.256;9.356;2023-07-20T07:11:30;4.37;;;2.40;;
40072;SDS011;25774;52.256;9.356;2023-07-20T07:13:56;3.67;;;2.57;;
40072;SDS011;25774;52.256;9.356;2023-07-20T07:16:22;4.47;;;2.60;;
40072;SDS011;25774;52.256;9.356;2023-07-20T07:21:12;5.97;;;2.40;;
40072;SDS011;25774;52.256;9.356;2023-07-20T07:23:38;7.43;;;2.57;;
40072;SDS011;25774;52.256;9.356;2023-07-20T07:26:04;5.35;;;2.42;;
40072;SDS011;25774;52.256;9.356;2023-07-20T07:28:31;4.90;;;2.30;;
40072;SDS011;25774;52.256;9.356;2023-07-20T07:30:57;4.80;;;1.98;;
40072;SDS011;25774;52.256;9.356;2023-07-20T07:33:22;4.90;;;1.65;;
40072;SDS011;25774;52.256;9.356;2023-07-20T07:35:48;2.80;;;1.50;;
40072;SDS011;25774;52.256;9.356;2023-07-20T07:40:39;3.50;;;1.40;;
40072;SDS011;25774;52.256;9.356;2023-07-20T07:43:04;2.27;;;1.27;;
40072;SDS011;25774;52.256;9.356;2023-07-20T07:45:30;2.43;;;1.50;;
40072;SDS011;25774;52.256;9.356;2023-07-20T07:47:55;3.65;;;1.42;;
40072;SDS011;25774;52.256;9.356;2023-07-20T07:50:20;1.93;;;1.10;;
40072;SDS011;25774;52.256;9.356;2023-07-20T07:52:46;2.10;;;1.17;;
40072;SDS011;25774;52.256;9.356;2023-07-20T07:55:11;5.72;;;1.35;;
40072;SDS011;25774;52.256;9.356;2023-07-20T07:57:36;2.40;;;0.90;;
40072;SDS011;25774;52.256;9.356;2023-07-20T08:00:02;1.40;;;0.80;;
40072;SDS011;25774;52.256;9.356;2023-07-20T08:02:28;1.77;;;1.00;;
40072;SDS011;25774;52.256;9.356;2023-07-20T08:04:54;2.70;;;0.77;;
40072;SDS011;25774;52.256;9.356;2023-07-20T08:07:19;3.80;;;0.80;;
40072;SDS011;25774;52.256;9.356;2023-07-20T08:09:44;2.07;;;0.63;;
40072;SDS011;25774;52.256;9.356;2023-07-20T08:12:09;2.00;;;0.43;;
40072;SDS011;25774;52.256;9.356;2023-07-20T08:14:35;2.73;;;0.57;;
40072;SDS011;25774;52.256;9.356;2023-07-20T08:17:00;1.80;;;0.87;;
40072;SDS011;25774;52.256;9.356;2023-07-20T08:19:25;1.50;;;0.77;;
40072;SDS011;25774;52.256;9.356;2023-07-20T08:21:50;1.50;;;0.80;;
40072;SDS011;25774;52.256;9.356;2023-07-20T08:24:17;1.30;;;0.60;;
40072;SDS011;25774;52.256;9.356;2023-07-20T08:29:07;3.17;;;0.80;;
40072;SDS011;25774;52.256;9.356;2023-07-20T08:31:32;1.97;;;0.90;;
40072;SDS011;25774;52.256;9.356;2023-07-20T08:33:57;1.47;;;0.60;;
40072;SDS011;25774;52.256;9.356;2023-07-20T08:36:23;3.30;;;1.27;;
40072;SDS011;25774;52.256;9.356;2023-07-20T08:38:48;2.88;;;0.40;;
40072;SDS011;25774;52.256;9.356;2023-07-20T08:41:14;1.43;;;0.60;;
40072;SDS011;25774;52.256;9.356;2023-07-20T08:43:40;0.73;;;0.50;;
40072;SDS011;25774;52.256;9.356;2023-07-20T08:46:07;2.42;;;0.50;;
40072;SDS011;25774;52.256;9.356;2023-07-20T08:48:33;2.15;;;0.60;;
40072;SDS011;25774;52.256;9.356;2023-07-20T08:50:58;2.07;;;0.50;;
40072;SDS011;25774;52.256;9.356;2023-07-20T08:53:25;1.73;;;0.70;;
40072;SDS011;25774;52.256;9.356;2023-07-20T08:55:51;1.60;;;0.53;;
40072;SDS011;25774;52.256;9.356;2023-07-20T08:58:17;0.93;;;0.40;;
40072;SDS011;25774;52.256;9.356;2023-07-20T09:00:43;5.83;;;0.70;;
40072;SDS011;25774;52.256;9.356;2023-07-20T09:03:08;2.08;;;0.73;;
40072;SDS011;25774;52.256;9.356;2023-07-20T09:05:33;2.88;;;0.70;;
40072;SDS011;25774;52.256;9.356;2023-07-20T09:08:00;1.15;;;0.50;;
40072;SDS011;25774;52.256;9.356;2023-07-20T09:10:25;1.35;;;0.40;;
40072;SDS011;25774;52.256;9.356;2023-07-20T09:12:50;1.00;;;0.40;;
40072;SDS011;25774;52.256;9.356;2023-07-20T09:15:16;1.23;;;0.40;;
40072;SDS011;25774;52.256;9.356;2023-07-20T09:17:45;0.93;;;0.50;;
40072;SDS011;25774;52.256;9.356;2023-07-20T09:20:11;1.40;;;0.40;;
40072;SDS011;25774;52.256;9.356;2023-07-20T09:25:05;0.82;;;0.40;;
40072;SDS011;25774;52.256;9.356;2023-07-20T09:27:37;1.75;;;0.40;;
40072;SDS011;25774;52.256;9.356;2023-07-20T09:30:08;1.60;;;0.40;;
40072;SDS011;25774;52.256;9.356;2023-07-20T09:35:07;0.75;;;0.38;;
40072;SDS011;25774;52.256;9.356;2023-07-20T09:37:37;0.43;;;0.25;;
40072;SDS011;25774;52.256;9.356;2023-07-20T09:40:03;0.37;;;0.20;;
40072;SDS011;25774;52.256;9.356;2023-07-20T09:42:31;0.82;;;0.20;;
40072;SDS011;25774;52.256;9.356;2023-07-20T09:44:56;0.70;;;0.40;;
40072;SDS011;25774;52.256;9.356;2023-07-20T09:47:22;1.57;;;0.43;;
40072;SDS011;25774;52.256;9.356;2023-07-20T09:49:47;1.55;;;0.50;;
40072;SDS011;25774;52.256;9.356;2023-07-20T09:52:12;1.53;;;0.30;;
40072;SDS011;25774;52.256;9.356;2023-07-20T09:54:38;3.08;;;0.60;;
40072;SDS011;25774;52.256;9.356;2023-07-20T09:57:03;1.15;;;0.40;;
40072;SDS011;25774;52.256;9.356;2023-07-20T09:59:29;4.10;;;0.40;;
40072;SDS011;25774;52.256;9.356;2023-07-20T10:01:55;0.40;;;0.30;;
40072;SDS011;25774;52.256;9.356;2023-07-20T10:04:23;1.33;;;0.20;;
40072;SDS011;25774;52.256;9.356;2023-07-20T10:09:17;0.98;;;0.20;;
40072;SDS011;25774;52.256;9.356;2023-07-20T10:14:08;2.35;;;0.40;;
40072;SDS011;25774;52.256;9.356;2023-07-20T10:16:36;0.57;;;0.30;;
40072;SDS011;25774;52.256;9.356;2023-07-20T10:19:07;0.82;;;0.40;;
40072;SDS011;25774;52.256;9.356;2023-07-20T10:21:33;4.18;;;0.50;;
40072;SDS011;25774;52.256;9.356;2023-07-20T10:24:00;2.45;;;0.40;;
40072;SDS011;25774;52.256;9.356;2023-07-20T10:26:26;1.55;;;0.30;;
40072;SDS011;25774;52.256;9.356;2023-07-20T10:28:51;0.93;;;0.47;;
40072;SDS011;25774;52.256;9.356;2023-07-20T10:31:16;1.00;;;0.30;;
40072;SDS011;25774;52.256;9.356;2023-07-20T10:33:42;1.35;;;0.40;;
40072;SDS011;25774;52.256;9.356;2023-07-20T10:36:09;1.20;;;0.40;;
40072;SDS011;25774;52.256;9.356;2023-07-20T10:38:40;1.58;;;0.30;;
40072;SDS011;25774;52.256;9.356;2023-07-20T10:41:19;0.47;;;0.30;;
40072;SDS011;25774;52.256;9.356;2023-07-20T10:43:44;1.15;;;0.35;;
40072;SDS011;25774;52.256;9.356;2023-07-20T10:46:13;1.95;;;0.40;;
40072;SDS011;25774;52.256;9.356;2023-07-20T10:51:22;1.92;;;0.47;;
40072;SDS011;25774;52.256;9.356;2023-07-20T10:53:50;1.27;;;0.38;;
40072;SDS011;25774;52.256;9.356;2023-07-20T10:56:19;0.57;;;0.30;;
40072;SDS011;25774;52.256;9.356;2023-07-20T10:58:44;1.05;;;0.40;;
40072;SDS011;25774;52.256;9.356;2023-07-20T11:01:12;1.47;;;0.30;;
40072;SDS011;25774;52.256;9.356;2023-07-20T11:03:38;1.83;;;0.50;;
40072;SDS011;25774;52.256;9.356;2023-07-20T11:08:48;1.20;;;0.30;;
40072;SDS011;25774;52.256;9.356;2023-07-20T11:13:38;0.68;;;0.30;;
40072;SDS011;25774;52.256;9.356;2023-07-20T11:16:18;1.13;;;0.30;;
40072;SDS011;25774;52.256;9.356;2023-07-20T11:21:10;1.63;;;0.32;;
40072;SDS011;25774;52.256;9.356;2023-07-20T11:26:01;0.70;;;0.20;;
40072;SDS011;25774;52.256;9.356;2023-07-20T11:28:29;0.40;;;0.30;;
40072;SDS011;25774;52.256;9.356;2023-07-20T11:30:55;0.93;;;0.38;;
40072;SDS011;25774;52.256;9.356;2023-07-20T11:35:48;0.95;;;0.50;;
40072;SDS011;25774;52.256;9.356;2023-07-20T11:38:15;1.65;;;0.30;;
40072;SDS011;25774;52.256;9.356;2023-07-20T11:40:44;2.70;;;0.47;;
40072;SDS011;25774;52.256;9.356;2023-07-20T11:43:10;0.88;;;0.20;;
40072;SDS011;25774;52.256;9.356;2023-07-20T11:45:35;2.15;;;0.60;;
40072;SDS011;25774;52.256;9.356;2023-07-20T11:48:02;1.40;;;0.20;;
40072;SDS011;25774;52.256;9.356;2023-07-20T11:52:52;0.30;;;0.23;;
40072;SDS011;25774;52.256;9.356;2023-07-20T11:58:00;1.58;;;0.43;;
40072;SDS011;25774;52.256;9.356;2023-07-20T12:00:28;0.75;;;0.30;;
40072;SDS011;25774;52.256;9.356;2023-07-20T12:02:53;0.63;;;0.32;;
40072;SDS011;25774;52.256;9.356;2023-07-20T12:05:19;0.87;;;0.27;;
40072;SDS011;25774;52.256;9.356;2023-07-20T12:10:10;2.65;;;0.30;;
40072;SDS011;25774;52.256;9.356;2023-07-20T12:12:41;0.40;;;0.20;;
40072;SDS011;25774;52.256;9.356;2023-07-20T12:15:20;0.60;;;0.20;;
40072;SDS011;25774;52.256;9.356;2023-07-20T12:17:46;1.00;;;0.30;;
40072;SDS011;25774;52.256;9.356;2023-07-20T12:22:40;0.60;;;0.30;;
40072;SDS011;25774;52.256;9.356;2023-07-20T12:25:06;0.93;;;0.30;;
40072;SDS011;25774;52.256;9.356;2023-07-20T12:29:56;1.75;;;1.13;;
40072;SDS011;25774;52.256;9.356;2023-07-20T12:32:22;0.80;;;0.35;;
40072;SDS011;25774;52.256;9.356;2023-07-20T12:37:17;0.67;;;0.37;;
40072;SDS011;25774;52.256;9.356;2023-07-20T12:39:42;0.55;;;0.20;;
40072;SDS011;25774;52.256;9.356;2023-07-20T12:42:11;2.08;;;0.30;;
40072;SDS011;25774;52.256;9.356;2023-07-20T12:44:37;2.33;;;0.57;;
40072;SDS011;25774;52.256;9.356;2023-07-20T12:47:02;0.57;;;0.20;;
40072;SDS011;25774;52.256;9.356;2023-07-20T12:51:52;4.30;;;0.57;;
40072;SDS011;25774;52.256;9.356;2023-07-20T12:54:18;0.80;;;0.40;;
40072;SDS011;25774;52.256;9.356;2023-07-20T12:56:43;0.33;;;0.33;;
40072;SDS011;25774;52.256;9.356;2023-07-20T13:01:33;0.25;;;0.20;;
40072;SDS011;25774;52.256;9.356;2023-07-20T13:03:59;1.42;;;0.32;;
40072;SDS011;25774;52.256;9.356;2023-07-20T13:06:24;0.50;;;0.30;;
40072;SDS011;25774;52.256;9.356;2023-07-20T13:08:49;2.83;;;0.30;;
40072;SDS011;25774;52.256;9.356;2023-07-20T13:11:15;2.15;;;0.30;;
40072;SDS011;25774;52.256;9.356;2023-07-20T13:16:06;0.82;;;0.20;;
40072;SDS011;25774;52.256;9.356;2023-07-20T13:18:31;1.50;;;0.40;;
40072;SDS011;25774;52.256;9.356;2023-07-20T13:23:23;2.92;;;0.65;;
40072;SDS011;25774;52.256;9.356;2023-07-20T13:28:13;2.10;;;0.47;;
40072;SDS011;25774;52.256;9.356;2023-07-20T13:30:39;1.00;;;0.47;;
40072;SDS011;25774;52.256;9.356;2023-07-20T13:35:29;2.00;;;0.80;;
40072;SDS011;25774;52.256;9.356;2023-07-20T13:40:20;0.73;;;0.30;;
40072;SDS011;25774;52.256;9.356;2023-07-20T13:42:45;0.87;;;0.40;;
40072;SDS011;25774;52.256;9.356;2023-07-20T13:47:37;3.08;;;0.40;;
40072;SDS011;25774;52.256;9.356;2023-07-20T13:50:02;2.67;;;0.60;;
40072;SDS011;25774;52.256;9.356;2023-07-20T13:54:52;0.20;;;0.20;;
40072;SDS011;25774;52.256;9.356;2023-07-20T13:57:18;0.40;;;0.30;;
40072;SDS011;25774;52.256;9.356;2023-07-20T13:59:43;1.07;;;0.30;;
40072;SDS011;25774;52.256;9.356;2023-07-20T14:02:09;0.40;;;0.30;;
40072;SDS011;25774;52.256;9.356;2023-07-20T14:06:59;1.25;;;0.32;;
40072;SDS011;25774;52.256;9.356;2023-07-20T14:11:49;0.43;;;0.20;;
40072;SDS011;25774;52.256;9.356;2023-07-20T14:16:40;1.48;;;0.50;;
40072;SDS011;25774;52.256;9.356;2023-07-20T14:19:05;2.90;;;0.33;;
40072;SDS011;25774;52.256;9.356;2023-07-20T14:23:56;3.65;;;0.40;;
40072;SDS011;25774;52.256;9.356;2023-07-20T14:26:22;0.88;;;0.38;;
40072;SDS011;25774;52.256;9.356;2023-07-20T14:31:13;2.25;;;0.30;;
40072;SDS011;25774;52.256;9.356;2023-07-20T14:36:04;1.45;;;0.40;;
40072;SDS011;25774;52.256;9.356;2023-07-20T14:40:55;1.13;;;0.50;;
40072;SDS011;25774;52.256;9.356;2023-07-20T14:45:45;0.88;;;0.30;;
40072;SDS011;25774;52.256;9.356;2023-07-20T14:50:35;1.90;;;0.30;;
40072;SDS011;25774;52.256;9.356;2023-07-20T14:55:28;0.25;;;0.20;;
40072;SDS011;25774;52.256;9.356;2023-07-20T15:00:18;0.68;;;0.20;;
40072;SDS011;25774;52.256;9.356;2023-07-20T15:05:10;1.55;;;0.40;;
40072;SDS011;25774;52.256;9.356;2023-07-20T15:10:00;0.53;;;0.20;;
40072;SDS011;25774;52.256;9.356;2023-07-20T15:15:05;1.05;;;0.32;;
40072;SDS011;25774;52.256;9.356;2023-07-20T15:17:31;1.50;;;0.43;;
40072;SDS011;25774;52.256;9.356;2023-07-20T15:22:21;0.60;;;0.30;;
40072;SDS011;25774;52.256;9.356;2023-07-20T15:24:47;0.90;;;0.30;;
40072;SDS011;25774;52.256;9.356;2023-07-20T15:27:12;0.43;;;0.20;;
40072;SDS011;25774;52.256;9.356;2023-07-20T15:29:37;2.07;;;0.67;;
40072;SDS011;25774;52.256;9.356;2023-07-20T15:32:03;2.60;;;0.45;;
40072;SDS011;25774;52.256;9.356;2023-07-20T15:36:53;2.17;;;0.40;;
40072;SDS011;25774;52.256;9.356;2023-07-20T15:39:19;2.10;;;0.40;;
40072;SDS011;25774;52.256;9.356;2023-07-20T15:41:45;3.28;;;0.60;;
40072;SDS011;25774;52.256;9.356;2023-07-20T15:49:04;4.75;;;0.60;;
40072;SDS011;25774;52.256;9.356;2023-07-20T15:53:54;2.58;;;0.35;;
40072;SDS011;25774;52.256;9.356;2023-07-20T15:58:45;2.20;;;0.50;;
40072;SDS011;25774;52.256;9.356;2023-07-20T16:03:35;3.58;;;0.93;;
40072;SDS011;25774;52.256;9.356;2023-07-20T16:06:00;1.77;;;0.40;;
40072;SDS011;25774;52.256;9.356;2023-07-20T16:08:29;1.80;;;0.40;;
40072;SDS011;25774;52.256;9.356;2023-07-20T16:13:22;3.45;;;0.93;;
40072;SDS011;25774;52.256;9.356;2023-07-20T16:18:12;1.75;;;0.63;;
40072;SDS011;25774;52.256;9.356;2023-07-20T16:23:03;3.38;;;0.60;;
40072;SDS011;25774;52.256;9.356;2023-07-20T16:25:30;0.68;;;0.40;;
40072;SDS011;25774;52.256;9.356;2023-07-20T16:30:21;1.37;;;0.50;;
40072;SDS011;25774;52.256;9.356;2023-07-20T16:35:11;2.20;;;0.50;;
40072;SDS011;25774;52.256;9.356;2023-07-20T16:40:03;1.80;;;0.53;;
40072;SDS011;25774;52.256;9.356;2023-07-20T16:42:32;3.35;;;0.77;;
40072;SDS011;25774;52.256;9.356;2023-07-20T16:44:57;1.20;;;0.45;;
40072;SDS011;25774;52.256;9.356;2023-07-20T16:49:50;2.55;;;0.50;;
40072;SDS011;25774;52.256;9.356;2023-07-20T16:52:16;1.00;;;0.47;;
40072;SDS011;25774;52.256;9.356;2023-07-20T16:54:41;1.08;;;0.40;;
40072;SDS011;25774;52.256;9.356;2023-07-20T16:59:31;2.58;;;0.85;;
40072;SDS011;25774;52.256;9.356;2023-07-20T17:04:22;1.92;;;0.60;;
40072;SDS011;25774;52.256;9.356;2023-07-20T17:06:47;1.17;;;0.40;;
40072;SDS011;25774;52.256;9.356;2023-07-20T17:09:13;1.42;;;0.50;;
40072;SDS011;25774;52.256;9.356;2023-07-20T17:11:39;2.90;;;0.50;;
40072;SDS011;25774;52.256;9.356;2023-07-20T17:14:05;1.95;;;0.50;;